Celebrity Infinity — 9HJD9 — position and weather

sailwx.info

Track history (hours):
 
Tides and Currents Weather Stations Pressure Air Temp Water Temp Dewpoint Dewpoint Depression Visibility Wind Speed Wind Dir Waves Ship Positions

Celebrity Infinity

Last reported at 2016-Jun-27 13:08 UTC. Time now 2016-Jul-01 20:50 UTC.
Position N 50°59' W 127°47'.

Length 294 m; draft 8.3 m.

Type: Ship. MMSI: 249048000.

Date/timePositionNaut miles runAvg speedWind from/ knotsBaromVisibWave heightAir tempDewpointWater temp
2016-Jun-27 13:08N 50°59' W 127°47'813.6
2016-Jun-27 12:33N 50°54' W 127°38'1616.0
2016-Jun-27 11:33N 50°47' W 127°15'1716.4
2016-Jun-27 10:32N 50°40' W 126°51'1615.3
2016-Jun-27 09:30N 50°30' W 126°31'7614.4
2016-Jun-27 04:16N 49°47' W 124°54'1318.1
2016-Jun-27 03:33N 49°38' W 124°40'1918.8
2016-Jun-27 02:33N 49°26' W 124°18'2019.5
2016-Jun-27 01:33N 49°22' W 123°49'1919.5
2016-Jun-27 00:33N 49°19' W 123°19'8 8.3
2016-Jun-26 23:33N 49°17' W 123°07'0 0.0
2016-Jun-26 22:33N 49°17' W 123°07'0 0.0
2016-Jun-26 21:32N 49°17' W 123°07'0 0.0
2016-Jun-26 20:32N 49°17' W 123°07'0 0.0
2016-Jun-26 19:31N 49°17' W 123°07'0 0.0
2016-Jun-26 18:31N 49°17' W 123°07'0 0.0
2016-Jun-26 17:31N 49°17' W 123°07'0 0.0
2016-Jun-26 16:33N 49°17' W 123°07'0 0.0
2016-Jun-26 15:33N 49°17' W 123°07'0 0.0
2016-Jun-26 14:32N 49°17' W 123°07'1 0.7
2016-Jun-26 13:33N 49°18' W 123°06'1111.0
2016-Jun-26 12:33N 49°18' W 123°23'1312.6
2016-Jun-26 11:33N 49°21' W 123°42'1312.6
2016-Jun-26 10:32N 49°23' W 124°02'1212.2
2016-Jun-26 09:33N 49°26' W 124°20'1212.2
2016-Jun-26 08:34N 49°33' W 124°34'1312.6
2016-Jun-26 07:33N 49°43' W 124°47'1312.6
2016-Jun-26 06:33N 49°52' W 125°01'1312.7
2016-Jun-26 05:33N 50°02' W 125°13'1110.9
2016-Jun-26 04:34N 50°11' W 125°22'6816.9
2016-Jun-26 00:33N 50°42' W 126°57'3819.2
2016-Jun-25 22:33N 51°00' W 127°50'  
2016-Jun-23 10:22N 58°09' W 135°11'1214.3
2016-Jun-23 09:32N 58°14' W 135°32'1414.3
2016-Jun-23 08:33N 58°19' W 135°56'1 0.0
2016-Jun-22 07:33N 58°20' W 135°58'1818.2
2016-Jun-22 06:34N 58°12' W 135°26'49312.6
2016-Jun-20 15:19N 51°04' W 128°22'1417.7
2016-Jun-20 14:33N 51°01' W 128°01'1514.6
2016-Jun-20 13:33N 50°55' W 127°40'1615.5
2016-Jun-20 12:33N 50°48' W 127°19'1515.0
2016-Jun-20 11:33N 50°42' W 126°57'6115.2
2016-Jun-20 07:33N 50°20' W 125°27'1414.4
2016-Jun-20 06:34N 50°07' W 125°19'1515.0
2016-Jun-20 05:33N 49°55' W 125°05'1717.5
2016-Jun-20 04:33N 49°42' W 124°47'1817.8
2016-Jun-20 03:33N 49°29' W 124°28'1717.2
2016-Jun-20 02:34N 49°23' W 124°04'1817.5
2016-Jun-20 01:34N 49°20' W 123°37'1717.0
2016-Jun-20 00:34N 49°19' W 123°11'4 3.5
2016-Jun-19 23:33N 49°17' W 123°07'0 0.0
2016-Jun-19 22:33N 49°17' W 123°07'0 0.0
2016-Jun-19 21:32N 49°17' W 123°07'0 0.0
2016-Jun-19 20:32N 49°17' W 123°07'0 0.0
2016-Jun-19 19:32N 49°17' W 123°07'0 0.0
2016-Jun-19 18:31N 49°17' W 123°07'0 0.0
2016-Jun-19 17:31N 49°17' W 123°07'0 0.0
2016-Jun-19 16:33N 49°17' W 123°07'0 0.0
2016-Jun-19 15:33N 49°17' W 123°07'0 0.0
2016-Jun-19 14:32N 49°17' W 123°07'1 0.6
2016-Jun-19 13:33N 49°18' W 123°06'1212.3
2016-Jun-19 12:33N 49°19' W 123°25'1515.0
2016-Jun-19 11:33N 49°22' W 123°48'1514.8
2016-Jun-19 10:33N 49°24' W 124°10'1414.5
2016-Jun-19 09:33N 49°30' W 124°30'1515.0
2016-Jun-19 08:33N 49°42' W 124°45'1515.1
2016-Jun-19 07:33N 49°52' W 125°02'1414.3
2016-Jun-19 06:33N 50°04' W 125°15'1614.4
2016-Jun-19 05:28N 50°18' W 125°25'4715.7
2016-Jun-19 02:29N 50°31' W 126°36'1415.4
2016-Jun-19 01:33N 50°40' W 126°52'1817.6
2016-Jun-19 00:33N 50°47' W 127°18'1717.3
2016-Jun-18 23:33N 50°56' W 127°42'1414.0
2016-Jun-18 22:33N 51°04' W 128°00'  
Track history (hours):
 
Tides and Currents Weather Stations Pressure Air Temp Water Temp Dewpoint Dewpoint Depression Visibility Wind Speed Wind Dir Waves Ship Positions

Celebrity Infinity

Last reported at 2016-Jun-27 13:08 UTC. Time now 2016-Jul-01 20:50 UTC.
Position N 50°59' W 127°47'.

Length 294 m; draft 8.3 m.

Type: Ship. MMSI: 249048000.

Date/timePositionNaut miles runAvg speedWind from/ knotsBaromVisibWave heightAir tempDewpointWater temp
2016-Jun-27 13:08N 50°59' W 127°47'813.6
2016-Jun-27 12:33N 50°54' W 127°38'1616.0
2016-Jun-27 11:33N 50°47' W 127°15'1716.4
2016-Jun-27 10:32N 50°40' W 126°51'1615.3
2016-Jun-27 09:30N 50°30' W 126°31'7614.4
2016-Jun-27 04:16N 49°47' W 124°54'1318.1
2016-Jun-27 03:33N 49°38' W 124°40'1918.8
2016-Jun-27 02:33N 49°26' W 124°18'2019.5
2016-Jun-27 01:33N 49°22' W 123°49'1919.5
2016-Jun-27 00:33N 49°19' W 123°19'8 8.3
2016-Jun-26 23:33N 49°17' W 123°07'0 0.0
2016-Jun-26 22:33N 49°17' W 123°07'0 0.0
2016-Jun-26 21:32N 49°17' W 123°07'0 0.0
2016-Jun-26 20:32N 49°17' W 123°07'0 0.0
2016-Jun-26 19:31N 49°17' W 123°07'0 0.0
2016-Jun-26 18:31N 49°17' W 123°07'0 0.0
2016-Jun-26 17:31N 49°17' W 123°07'0 0.0
2016-Jun-26 16:33N 49°17' W 123°07'0 0.0
2016-Jun-26 15:33N 49°17' W 123°07'0 0.0
2016-Jun-26 14:32N 49°17' W 123°07'1 0.7
2016-Jun-26 13:33N 49°18' W 123°06'1111.0
2016-Jun-26 12:33N 49°18' W 123°23'1312.6
2016-Jun-26 11:33N 49°21' W 123°42'1312.6
2016-Jun-26 10:32N 49°23' W 124°02'1212.2
2016-Jun-26 09:33N 49°26' W 124°20'1212.2
2016-Jun-26 08:34N 49°33' W 124°34'1312.6
2016-Jun-26 07:33N 49°43' W 124°47'1312.6
2016-Jun-26 06:33N 49°52' W 125°01'1312.7
2016-Jun-26 05:33N 50°02' W 125°13'1110.9
2016-Jun-26 04:34N 50°11' W 125°22'6816.9
2016-Jun-26 00:33N 50°42' W 126°57'3819.2
2016-Jun-25 22:33N 51°00' W 127°50'  
2016-Jun-23 10:22N 58°09' W 135°11'1214.3
2016-Jun-23 09:32N 58°14' W 135°32'1414.3
2016-Jun-23 08:33N 58°19' W 135°56'1 0.0
2016-Jun-22 07:33N 58°20' W 135°58'1818.2
2016-Jun-22 06:34N 58°12' W 135°26'49312.6
2016-Jun-20 15:19N 51°04' W 128°22'1417.7
2016-Jun-20 14:33N 51°01' W 128°01'1514.6
2016-Jun-20 13:33N 50°55' W 127°40'1615.5
2016-Jun-20 12:33N 50°48' W 127°19'1515.0
2016-Jun-20 11:33N 50°42' W 126°57'6115.2
2016-Jun-20 07:33N 50°20' W 125°27'1414.4
2016-Jun-20 06:34N 50°07' W 125°19'1515.0
2016-Jun-20 05:33N 49°55' W 125°05'1717.5
2016-Jun-20 04:33N 49°42' W 124°47'1817.8
2016-Jun-20 03:33N 49°29' W 124°28'1717.2
2016-Jun-20 02:34N 49°23' W 124°04'1817.5
2016-Jun-20 01:34N 49°20' W 123°37'1717.0
2016-Jun-20 00:34N 49°19' W 123°11'4 3.5
2016-Jun-19 23:33N 49°17' W 123°07'0 0.0
2016-Jun-19 22:33N 49°17' W 123°07'0 0.0
2016-Jun-19 21:32N 49°17' W 123°07'0 0.0
2016-Jun-19 20:32N 49°17' W 123°07'0 0.0
2016-Jun-19 19:32N 49°17' W 123°07'0 0.0
2016-Jun-19 18:31N 49°17' W 123°07'0 0.0
2016-Jun-19 17:31N 49°17' W 123°07'0 0.0
2016-Jun-19 16:33N 49°17' W 123°07'0 0.0
2016-Jun-19 15:33N 49°17' W 123°07'0 0.0
2016-Jun-19 14:32N 49°17' W 123°07'1 0.6
2016-Jun-19 13:33N 49°18' W 123°06'1212.3
2016-Jun-19 12:33N 49°19' W 123°25'1515.0
2016-Jun-19 11:33N 49°22' W 123°48'1514.8
2016-Jun-19 10:33N 49°24' W 124°10'1414.5
2016-Jun-19 09:33N 49°30' W 124°30'1515.0
2016-Jun-19 08:33N 49°42' W 124°45'1515.1
2016-Jun-19 07:33N 49°52' W 125°02'1414.3
2016-Jun-19 06:33N 50°04' W 125°15'1614.4
2016-Jun-19 05:28N 50°18' W 125°25'4715.7
2016-Jun-19 02:29N 50°31' W 126°36'1415.4
2016-Jun-19 01:33N 50°40' W 126°52'1817.6
2016-Jun-19 00:33N 50°47' W 127°18'1717.3
2016-Jun-18 23:33N 50°56' W 127°42'1414.0
2016-Jun-18 22:33N 51°04' W 128°00'  

Dump ship's entire track history